createdAt,value
2022-12-01T00:01:06.023Z,7.88
2022-12-01T00:03:33.269Z,7.87
2022-12-01T00:06:05.901Z,7.90
2022-12-01T00:08:33.840Z,7.88
2022-12-01T00:11:08.685Z,7.88
2022-12-01T00:13:35.625Z,7.88
2022-12-01T00:16:15.377Z,7.89
2022-12-01T00:18:42.281Z,7.88
2022-12-01T00:21:16.038Z,7.87
2022-12-01T00:23:47.434Z,7.88
2022-12-01T00:26:15.030Z,7.88
2022-12-01T00:28:41.759Z,7.87
2022-12-01T00:31:12.147Z,7.87
2022-12-01T00:33:39.488Z,7.86
2022-12-01T00:36:07.375Z,7.85
2022-12-01T00:38:34.489Z,7.85
2022-12-01T00:41:00.955Z,7.85
2022-12-01T00:43:27.364Z,7.86
2022-12-01T00:45:53.867Z,7.86
2022-12-01T00:48:20.764Z,7.87
2022-12-01T00:50:47.506Z,7.87
2022-12-01T00:53:14.947Z,7.87
2022-12-01T00:55:41.314Z,7.86
2022-12-01T00:58:07.778Z,7.85
2022-12-01T01:00:34.665Z,7.86
2022-12-01T01:03:01.582Z,7.86
2022-12-01T01:05:27.939Z,7.85
2022-12-01T01:07:54.427Z,7.85
2022-12-01T01:10:20.898Z,7.85
2022-12-01T01:12:47.272Z,7.84
2022-12-01T01:15:13.679Z,7.84
2022-12-01T01:17:40.072Z,7.84
2022-12-01T01:20:07.153Z,7.82
2022-12-01T01:22:35.123Z,7.82
2022-12-01T01:25:01.668Z,7.83
2022-12-01T01:27:28.196Z,7.83
2022-12-01T01:29:54.527Z,7.82
2022-12-01T01:32:20.958Z,7.83
2022-12-01T01:34:47.343Z,7.82
2022-12-01T01:37:13.740Z,7.81
2022-12-01T01:39:40.814Z,7.82
2022-12-01T01:42:12.490Z,7.83
2022-12-01T01:44:50.044Z,7.83
2022-12-01T01:47:22.089Z,7.83
2022-12-01T01:49:48.984Z,7.82
2022-12-01T01:52:16.281Z,7.83
2022-12-01T01:54:47.048Z,7.83
2022-12-01T01:57:20.631Z,7.82
2022-12-01T01:59:52.512Z,7.81
2022-12-01T02:02:18.982Z,7.80
2022-12-01T02:04:48.652Z,7.82
2022-12-01T02:07:18.663Z,7.83
2022-12-01T02:09:45.316Z,7.82
2022-12-01T02:12:36.089Z,7.80
2022-12-01T02:15:37.332Z,7.80
2022-12-01T02:18:26.506Z,7.81
2022-12-01T02:21:27.770Z,7.79
2022-12-01T02:24:26.406Z,7.78
2022-12-01T02:27:05.049Z,7.77
2022-12-01T02:29:41.641Z,7.77
2022-12-01T02:32:29.903Z,7.77
2022-12-01T02:35:14.584Z,7.77
2022-12-01T02:38:05.871Z,7.78
2022-12-01T02:40:41.370Z,7.78
2022-12-01T02:43:17.677Z,7.78
2022-12-01T02:45:53.631Z,7.77
2022-12-01T02:48:27.327Z,7.76
2022-12-01T02:50:57.983Z,7.76
2022-12-01T02:53:24.702Z,7.74
2022-12-01T02:55:57.702Z,7.73
2022-12-01T02:58:24.333Z,7.72
2022-12-01T03:01:20.128Z,7.70
2022-12-01T03:04:22.232Z,7.70
2022-12-01T03:07:10.695Z,7.68
2022-12-01T03:09:44.610Z,7.68
2022-12-01T03:12:23.537Z,7.69
2022-12-01T03:15:03.412Z,7.69
2022-12-01T03:17:43.279Z,7.68
2022-12-01T03:20:23.539Z,7.68
2022-12-01T03:22:55.503Z,7.66
2022-12-01T03:25:26.175Z,7.66
2022-12-01T03:28:20.327Z,7.66
2022-12-01T03:30:45.213Z,7.68
2022-12-01T03:33:19.122Z,7.68
2022-12-01T03:35:53.941Z,7.66
2022-12-01T03:38:28.871Z,7.64
2022-12-01T03:41:00.834Z,7.64
2022-12-01T03:43:33.369Z,7.65
2022-12-01T03:46:09.172Z,7.66
2022-12-01T03:48:36.892Z,7.65
2022-12-01T03:51:14.030Z,7.64
2022-12-01T03:54:09.579Z,7.65
2022-12-01T03:57:00.197Z,7.62
2022-12-01T03:59:29.397Z,7.60
2022-12-01T04:01:57.353Z,7.59
2022-12-01T04:04:24.503Z,7.59
2022-12-01T04:06:51.347Z,7.62
2022-12-01T04:09:17.928Z,7.63
2022-12-01T04:12:03.173Z,7.63
2022-12-01T04:14:30.140Z,7.65
2022-12-01T04:16:56.507Z,7.64
2022-12-01T04:19:23.886Z,7.64
2022-12-01T04:21:50.241Z,7.64
2022-12-01T04:24:16.751Z,7.63
2022-12-01T04:26:43.407Z,7.61
2022-12-01T04:29:10.853Z,7.61
2022-12-01T04:31:37.672Z,7.62
2022-12-01T04:34:04.603Z,7.63
2022-12-01T04:36:32.638Z,7.61
2022-12-01T04:38:59.208Z,7.60
2022-12-01T04:41:25.595Z,7.59
2022-12-01T04:43:55.807Z,7.59
2022-12-01T04:46:23.163Z,7.57
2022-12-01T04:48:49.591Z,7.58
2022-12-01T04:51:16.057Z,7.57
2022-12-01T04:53:42.496Z,7.57
2022-12-01T04:56:09.214Z,7.56
2022-12-01T04:58:37.611Z,7.54
2022-12-01T05:01:06.388Z,7.55
2022-12-01T05:03:36.614Z,7.55
2022-12-01T05:06:08.239Z,7.58
2022-12-01T05:08:35.859Z,7.58
2022-12-01T05:11:02.792Z,7.59
2022-12-01T05:13:29.305Z,7.58
2022-12-01T05:16:06.240Z,7.57
2022-12-01T05:18:32.914Z,7.58
2022-12-01T05:20:59.455Z,7.58
2022-12-01T05:23:27.630Z,7.58
2022-12-01T05:25:54.731Z,7.58
2022-12-01T05:28:23.390Z,7.58
2022-12-01T05:30:50.507Z,7.59
2022-12-01T05:33:17.350Z,7.59
2022-12-01T05:35:44.236Z,7.59
2022-12-01T05:38:11.064Z,7.60
2022-12-01T05:40:37.484Z,7.62
2022-12-01T05:43:04.503Z,7.59
2022-12-01T05:45:31.580Z,7.56
2022-12-01T05:47:59.760Z,7.55
2022-12-01T05:50:27.521Z,7.54
2022-12-01T05:52:55.288Z,7.54
2022-12-01T05:55:22.798Z,7.53
2022-12-01T05:57:49.270Z,7.54
2022-12-01T06:00:16.305Z,7.56
2022-12-01T06:02:42.875Z,7.57
2022-12-01T06:05:09.534Z,7.58
2022-12-01T06:07:35.936Z,7.58
2022-12-01T06:10:03.288Z,7.56
2022-12-01T06:12:29.634Z,7.54
2022-12-01T06:14:56.057Z,7.55
2022-12-01T06:17:22.410Z,7.53
2022-12-01T06:19:49.108Z,7.51
2022-12-01T06:22:15.686Z,7.51
2022-12-01T06:24:42.151Z,7.52
2022-12-01T06:27:08.549Z,7.52
2022-12-01T06:29:40.582Z,7.54
2022-12-01T06:32:09.478Z,7.54
2022-12-01T06:34:35.861Z,7.54
2022-12-01T06:37:02.243Z,7.55
2022-12-01T06:39:28.695Z,7.54
2022-12-01T06:41:55.134Z,7.53
2022-12-01T06:44:21.479Z,7.52
2022-12-01T06:46:52.699Z,7.51
2022-12-01T06:49:19.705Z,7.50
2022-12-01T06:51:46.375Z,7.49
2022-12-01T06:54:12.827Z,7.48
2022-12-01T06:56:39.500Z,7.50
2022-12-01T06:59:06.195Z,7.49
2022-12-01T07:01:33.072Z,7.48
2022-12-01T07:03:59.567Z,7.44
2022-12-01T07:06:26.127Z,7.45
2022-12-01T07:08:53.074Z,7.44
2022-12-01T07:11:19.485Z,7.45
2022-12-01T07:13:46.007Z,7.44
2022-12-01T07:16:12.928Z,7.44
2022-12-01T07:18:40.383Z,7.45
2022-12-01T07:21:10.116Z,7.43
2022-12-01T07:23:36.578Z,7.39
2022-12-01T07:26:11.113Z,7.40
2022-12-01T07:28:37.645Z,7.38
2022-12-01T07:31:06.182Z,7.37
2022-12-01T07:33:32.755Z,7.35
2022-12-01T07:35:59.131Z,7.34
2022-12-01T07:38:27.680Z,7.36
2022-12-01T07:40:54.111Z,7.35
2022-12-01T07:43:20.487Z,7.35
2022-12-01T07:45:47.172Z,7.37
2022-12-01T07:48:13.648Z,7.37
2022-12-01T07:50:40.057Z,7.35
2022-12-01T07:53:06.730Z,7.35
2022-12-01T07:55:33.251Z,7.35
2022-12-01T07:58:00.688Z,7.34
2022-12-01T08:00:27.232Z,7.35
2022-12-01T08:02:53.597Z,7.37
2022-12-01T08:05:20.003Z,7.39
2022-12-01T08:07:46.431Z,7.38
2022-12-01T08:10:12.838Z,7.41
2022-12-01T08:12:39.200Z,7.43
2022-12-01T08:15:06.021Z,7.46
2022-12-01T08:17:32.446Z,7.47
2022-12-01T08:19:58.792Z,7.49
2022-12-01T08:22:25.217Z,7.49
2022-12-01T08:24:51.545Z,7.46
2022-12-01T08:27:17.982Z,7.43
2022-12-01T08:29:44.419Z,7.43
2022-12-01T08:32:10.838Z,7.43
2022-12-01T08:34:38.554Z,7.46
2022-12-01T08:37:04.947Z,7.51
2022-12-01T08:39:31.378Z,7.50
2022-12-01T08:41:57.814Z,7.48
2022-12-01T08:44:24.257Z,7.47
2022-12-01T08:46:50.718Z,7.47
2022-12-01T08:49:17.323Z,7.47
2022-12-01T08:51:43.748Z,7.46
2022-12-01T08:54:12.161Z,7.46
2022-12-01T08:56:42.174Z,7.44
2022-12-01T08:59:09.008Z,7.43
2022-12-01T09:01:51.551Z,7.43
2022-12-01T09:04:19.889Z,7.44
2022-12-01T09:06:48.192Z,7.46
2022-12-01T09:09:20.937Z,7.49
2022-12-01T09:11:47.878Z,7.52
2022-12-01T09:14:16.535Z,7.55
2022-12-01T09:16:44.854Z,7.56
2022-12-01T09:19:13.183Z,7.56
2022-12-01T09:21:42.634Z,7.57
2022-12-01T09:24:13.807Z,7.58
2022-12-01T09:26:40.872Z,7.57
2022-12-01T09:29:10.302Z,7.53
2022-12-01T09:31:37.871Z,7.51
2022-12-01T09:34:07.090Z,7.51
2022-12-01T09:36:35.200Z,7.49
2022-12-01T09:39:02.205Z,7.51
2022-12-01T09:41:35.485Z,7.49
2022-12-01T09:44:15.161Z,7.48
2022-12-01T09:46:49.782Z,7.49
2022-12-01T09:49:23.786Z,7.48
2022-12-01T09:51:52.466Z,7.49
2022-12-01T09:54:18.929Z,7.47
2022-12-01T09:56:50.201Z,7.42
2022-12-01T09:59:20.692Z,7.40
2022-12-01T10:01:50.895Z,7.40
2022-12-01T10:04:22.766Z,7.39
2022-12-01T10:06:57.902Z,7.39
2022-12-01T10:09:48.600Z,7.37
2022-12-01T10:12:18.117Z,7.35
2022-12-01T10:14:46.392Z,7.34
2022-12-01T10:17:28.255Z,7.30
2022-12-01T10:20:03.388Z,7.27
2022-12-01T10:22:49.245Z,7.24
2022-12-01T10:25:24.772Z,7.20
2022-12-01T10:28:12.463Z,7.17
2022-12-01T10:30:49.759Z,7.14
2022-12-01T10:33:24.810Z,7.12
2022-12-01T10:35:51.715Z,7.12
2022-12-01T10:38:27.822Z,7.11
2022-12-01T10:40:58.443Z,7.09
2022-12-01T10:43:37.523Z,7.08
2022-12-01T10:46:19.714Z,7.08
2022-12-01T10:48:57.762Z,7.07
2022-12-01T10:51:25.716Z,7.09
2022-12-01T10:54:07.074Z,7.10
2022-12-01T10:56:33.969Z,7.10
2022-12-01T10:59:16.923Z,7.09
2022-12-01T11:01:48.170Z,7.07
2022-12-01T11:04:29.557Z,7.02
2022-12-01T11:06:56.890Z,7.01
2022-12-01T11:09:28.966Z,7.00
2022-12-01T11:12:01.040Z,7.01
2022-12-01T11:14:46.507Z,6.99
2022-12-01T11:17:22.368Z,6.99
2022-12-01T11:19:49.272Z,6.98
2022-12-01T11:22:25.371Z,6.98
2022-12-01T11:24:59.693Z,6.95
2022-12-01T11:27:30.471Z,6.95
2022-12-01T11:30:04.954Z,6.91
2022-12-01T11:32:35.366Z,6.86
2022-12-01T11:35:14.212Z,6.87
2022-12-01T11:38:13.310Z,6.88
2022-12-01T11:40:45.838Z,6.88
2022-12-01T11:43:23.377Z,6.87
2022-12-01T11:45:50.207Z,6.88
2022-12-01T11:48:29.710Z,6.88
2022-12-01T11:51:20.244Z,6.91
2022-12-01T11:54:23.496Z,6.90
2022-12-01T11:57:17.363Z,6.90
2022-12-01T11:59:38.305Z,6.87
2022-12-01T12:02:20.932Z,6.85
2022-12-01T12:05:18.208Z,6.83
2022-12-01T12:08:05.614Z,6.83
2022-12-01T12:10:44.001Z,6.83
2022-12-01T12:13:25.195Z,6.83
2022-12-01T12:16:19.799Z,6.82
2022-12-01T12:19:28.968Z,6.84
2022-12-01T12:22:11.956Z,6.85
2022-12-01T12:24:48.793Z,6.86
2022-12-01T12:27:29.278Z,6.85
2022-12-01T12:30:26.132Z,6.81
2022-12-01T12:33:33.319Z,6.78
2022-12-01T12:36:38.633Z,6.79
2022-12-01T12:39:36.735Z,6.79
2022-12-01T12:42:14.721Z,6.78
2022-12-01T12:44:51.573Z,6.74
2022-12-01T12:47:50.992Z,6.75
2022-12-01T12:50:31.946Z,6.76
2022-12-01T12:53:04.562Z,6.78
2022-12-01T12:55:39.744Z,6.78
2022-12-01T12:58:26.910Z,6.78
2022-12-01T13:01:03.424Z,6.79
2022-12-01T13:03:49.031Z,6.76
2022-12-01T13:06:25.795Z,6.77
2022-12-01T13:08:59.153Z,6.75
2022-12-01T13:11:40.093Z,6.76
2022-12-01T13:14:15.629Z,6.77
2022-12-01T13:16:46.392Z,6.77
2022-12-01T13:19:16.589Z,6.77
2022-12-01T13:21:46.842Z,6.79
2022-12-01T13:24:23.388Z,6.81
2022-12-01T13:26:55.978Z,6.82
2022-12-01T13:29:25.486Z,6.81
2022-12-01T13:31:53.722Z,6.81
2022-12-01T13:34:39.707Z,6.79
2022-12-01T13:37:08.918Z,6.80
2022-12-01T13:39:40.853Z,6.79
2022-12-01T13:42:35.064Z,6.79
2022-12-01T13:45:10.426Z,6.78
2022-12-01T13:47:51.381Z,6.72
2022-12-01T13:50:36.159Z,6.69
2022-12-01T13:53:17.783Z,6.67
2022-12-01T13:56:16.459Z,6.67
2022-12-01T13:58:53.183Z,6.65
2022-12-01T14:01:19.860Z,6.62
2022-12-01T14:04:11.222Z,6.62
2022-12-01T14:06:49.266Z,6.59
2022-12-01T14:09:33.236Z,6.59
2022-12-01T14:12:06.341Z,6.59
2022-12-01T14:14:36.961Z,6.59
2022-12-01T14:17:04.517Z,6.56
2022-12-01T14:19:39.371Z,6.53
2022-12-01T14:22:07.610Z,6.50
2022-12-01T14:24:43.482Z,6.50
2022-12-01T14:27:11.883Z,6.50
2022-12-01T14:29:42.957Z,6.48
2022-12-01T14:32:09.366Z,6.46
2022-12-01T14:34:39.452Z,6.47
2022-12-01T14:37:20.833Z,6.47
2022-12-01T14:39:58.086Z,6.47
2022-12-01T14:42:51.897Z,6.47
2022-12-01T14:45:34.134Z,6.47
2022-12-01T14:48:04.260Z,6.48
2022-12-01T14:51:10.587Z,6.53
2022-12-01T14:53:41.865Z,6.55
2022-12-01T14:56:16.166Z,6.56
2022-12-01T14:59:00.537Z,6.58
2022-12-01T15:01:33.908Z,6.59
2022-12-01T15:04:03.201Z,6.60
2022-12-01T15:06:31.991Z,6.62
2022-12-01T15:12:07.514Z,6.60
2022-12-01T15:14:47.079Z,6.57
2022-12-01T15:17:31.083Z,6.57
2022-12-01T15:19:58.598Z,6.56
2022-12-01T15:22:30.532Z,6.57
2022-12-01T15:25:15.141Z,6.57
2022-12-01T15:27:43.158Z,6.58
2022-12-01T15:30:14.456Z,6.60
2022-12-01T15:32:45.607Z,6.61
2022-12-01T15:35:20.549Z,6.63
2022-12-01T15:37:47.484Z,6.64
2022-12-01T15:43:14.330Z,6.62
2022-12-01T15:46:09.841Z,6.56
2022-12-01T15:48:37.190Z,6.52
2022-12-01T15:51:09.895Z,6.50
2022-12-01T15:53:39.870Z,6.48
2022-12-01T15:56:09.016Z,6.47
2022-12-01T15:58:42.067Z,6.46
2022-12-01T16:01:12.970Z,6.47
2022-12-01T16:03:52.414Z,6.47
2022-12-01T16:06:20.928Z,6.48
2022-12-01T16:09:18.816Z,6.39
2022-12-01T16:12:18.703Z,6.38
2022-12-01T16:14:54.489Z,6.40
2022-12-01T16:17:22.158Z,6.41
2022-12-01T16:19:48.595Z,6.41
2022-12-01T16:22:20.110Z,6.42
2022-12-01T16:24:51.362Z,6.44
2022-12-01T16:27:25.151Z,6.43
2022-12-01T16:29:59.012Z,6.39
2022-12-01T16:32:25.403Z,6.36
2022-12-01T16:34:52.838Z,6.36
2022-12-01T16:37:21.437Z,6.37
2022-12-01T16:39:48.234Z,6.36
2022-12-01T16:42:16.691Z,6.35
2022-12-01T16:44:44.552Z,6.34
2022-12-01T16:47:25.244Z,6.34
2022-12-01T16:49:52.392Z,6.35
2022-12-01T16:55:18.962Z,6.33
2022-12-01T16:57:45.396Z,6.34
2022-12-01T17:00:12.268Z,6.32
2022-12-01T17:02:38.700Z,6.34
2022-12-01T17:05:05.302Z,6.35
2022-12-01T17:07:31.843Z,6.35
2022-12-01T17:09:58.317Z,6.35
2022-12-01T17:12:26.636Z,6.35
2022-12-01T17:14:53.037Z,6.36
2022-12-01T17:17:19.396Z,6.37
2022-12-01T17:19:45.860Z,6.38
2022-12-01T17:22:12.278Z,6.39
2022-12-01T17:24:39.015Z,6.40
2022-12-01T17:27:05.483Z,6.41
2022-12-01T17:29:31.871Z,6.44
2022-12-01T17:31:58.297Z,6.44
2022-12-01T17:34:24.763Z,6.44
2022-12-01T17:36:52.532Z,6.44
2022-12-01T17:39:19.382Z,6.42
2022-12-01T17:41:45.826Z,6.40
2022-12-01T17:44:12.348Z,6.40
2022-12-01T17:46:38.841Z,6.41
2022-12-01T17:49:09.307Z,6.42
2022-12-01T17:51:36.624Z,6.40
2022-12-01T17:54:03.275Z,6.37
2022-12-01T17:56:29.767Z,6.34
2022-12-01T17:58:56.356Z,6.32
2022-12-01T18:01:28.453Z,6.30
2022-12-01T18:03:58.174Z,6.30
2022-12-01T18:06:25.634Z,6.31
2022-12-01T18:08:53.095Z,6.30
2022-12-01T18:11:20.347Z,6.30
2022-12-01T18:13:48.733Z,6.30
2022-12-01T18:16:24.970Z,6.33
2022-12-01T18:18:52.207Z,6.35
2022-12-01T18:21:21.086Z,6.38
2022-12-01T18:23:58.301Z,6.37
2022-12-01T18:26:26.461Z,6.39
2022-12-01T18:28:54.702Z,6.39
2022-12-01T18:31:21.237Z,6.37
2022-12-01T18:33:47.712Z,6.30
2022-12-01T18:36:20.493Z,6.25
2022-12-01T18:38:47.574Z,6.23
2022-12-01T18:41:14.631Z,6.26
2022-12-01T18:43:41.303Z,6.30
2022-12-01T18:46:08.849Z,6.33
2022-12-01T18:48:35.473Z,6.32
2022-12-01T18:51:04.546Z,6.30
2022-12-01T18:53:31.467Z,6.26
2022-12-01T18:56:02.594Z,6.24
2022-12-01T18:58:29.668Z,6.24
2022-12-01T19:00:56.135Z,6.24
2022-12-01T19:03:22.631Z,6.22
2022-12-01T19:05:49.214Z,6.24
2022-12-01T19:08:15.618Z,6.24
2022-12-01T19:10:42.159Z,6.22
2022-12-01T19:13:08.569Z,6.22
2022-12-01T19:15:36.954Z,6.20
2022-12-01T19:18:03.448Z,6.23
2022-12-01T19:20:29.923Z,6.23
2022-12-01T19:22:56.349Z,6.23
2022-12-01T19:25:22.704Z,6.21
2022-12-01T19:27:51.064Z,6.18
2022-12-01T19:30:17.599Z,6.15
2022-12-01T19:32:44.282Z,6.10
2022-12-01T19:35:11.059Z,6.07
2022-12-01T19:37:37.439Z,6.06
2022-12-01T19:40:05.339Z,6.06
2022-12-01T19:42:32.097Z,6.07
2022-12-01T19:44:59.454Z,6.05
2022-12-01T19:47:25.795Z,6.08
2022-12-01T19:49:52.507Z,6.08
2022-12-01T19:52:18.839Z,6.08
2022-12-01T19:54:49.692Z,6.08
2022-12-01T19:57:16.286Z,6.10
2022-12-01T19:59:42.633Z,6.11
2022-12-01T20:02:10.530Z,6.13
2022-12-01T20:04:38.763Z,6.14
2022-12-01T20:07:05.723Z,6.15
2022-12-01T20:09:32.241Z,6.14
2022-12-01T20:11:58.602Z,6.12
2022-12-01T20:14:25.082Z,6.13
2022-12-01T20:16:54.648Z,6.13
2022-12-01T20:19:21.234Z,6.13
2022-12-01T20:21:48.496Z,6.13
2022-12-01T20:24:18.524Z,6.10
2022-12-01T20:26:48.127Z,6.09
2022-12-01T20:29:17.612Z,6.11
2022-12-01T20:31:44.822Z,6.12
2022-12-01T20:34:18.178Z,6.09
2022-12-01T20:36:44.806Z,6.08
2022-12-01T20:39:11.743Z,6.08
2022-12-01T20:41:39.706Z,6.10
2022-12-01T20:44:07.678Z,6.11
2022-12-01T20:46:35.759Z,6.10
2022-12-01T20:49:02.195Z,6.10
2022-12-01T20:51:28.537Z,6.09
2022-12-01T20:54:26.206Z,6.09
2022-12-01T20:56:41.346Z,6.06
2022-12-01T20:59:07.891Z,6.02
2022-12-01T21:01:34.460Z,6.01
2022-12-01T21:04:00.959Z,6.04
2022-12-01T21:06:29.029Z,6.06
2022-12-01T21:08:55.589Z,6.03
2022-12-01T21:11:47.424Z,6.04
2022-12-01T21:14:25.852Z,6.03
2022-12-01T21:16:56.586Z,6.05
2022-12-01T21:19:30.424Z,6.04
2022-12-01T21:21:58.212Z,6.00
2022-12-01T21:24:33.523Z,5.99
2022-12-01T21:27:12.593Z,5.99
2022-12-01T21:29:49.436Z,6.03
2022-12-01T21:32:20.863Z,5.99
2022-12-01T21:34:48.055Z,5.97
2022-12-01T21:37:21.783Z,5.97
2022-12-01T21:39:52.753Z,5.98
2022-12-01T21:42:22.018Z,5.98
2022-12-01T21:44:49.259Z,5.99
2022-12-01T21:47:20.629Z,5.98
2022-12-01T21:49:50.529Z,5.99
2022-12-01T21:52:20.088Z,5.98
2022-12-01T21:54:47.044Z,5.96
2022-12-01T21:57:39.784Z,5.95
2022-12-01T22:00:35.620Z,5.92
2022-12-01T22:03:08.003Z,5.93
2022-12-01T22:05:40.317Z,5.91
2022-12-01T22:08:32.346Z,5.87
2022-12-01T22:11:20.828Z,5.82
2022-12-01T22:13:50.419Z,5.79
2022-12-01T22:16:21.122Z,5.78
2022-12-01T22:18:51.712Z,5.74
2022-12-01T22:21:23.930Z,5.74
2022-12-01T22:24:01.010Z,5.73
2022-12-01T22:26:27.824Z,5.75
2022-12-01T22:28:57.886Z,5.76
2022-12-01T22:31:24.363Z,5.76
2022-12-01T22:34:00.127Z,5.78
2022-12-01T22:36:31.363Z,5.80
2022-12-01T22:38:58.057Z,5.83
2022-12-01T22:41:24.731Z,5.84
2022-12-01T22:43:55.926Z,5.83
2022-12-01T22:46:26.854Z,5.81
2022-12-01T22:49:19.389Z,5.77
2022-12-01T22:52:02.127Z,5.73
2022-12-01T22:54:34.609Z,5.70
2022-12-01T22:57:05.148Z,5.68
2022-12-01T22:59:35.460Z,5.70
2022-12-01T23:02:14.401Z,5.71
2022-12-01T23:04:45.114Z,5.74
2022-12-01T23:07:26.488Z,5.70
2022-12-01T23:09:53.115Z,5.68
2022-12-01T23:12:30.697Z,5.68
2022-12-01T23:15:00.769Z,5.68
2022-12-01T23:17:29.626Z,5.71
2022-12-01T23:20:32.136Z,5.72
2022-12-01T23:23:05.014Z,5.71
2022-12-01T23:25:31.872Z,5.69
2022-12-01T23:28:02.743Z,5.66
2022-12-01T23:30:29.356Z,5.61
2022-12-01T23:33:03.894Z,5.58
2022-12-01T23:35:39.011Z,5.58
2022-12-01T23:38:05.501Z,5.60
2022-12-01T23:40:36.109Z,5.64
2022-12-01T23:43:26.763Z,5.68
2022-12-01T23:46:06.610Z,5.66
2022-12-01T23:48:41.558Z,5.65
2022-12-01T23:51:25.354Z,5.66
2022-12-01T23:53:53.735Z,5.65
2022-12-01T23:56:22.977Z,5.63
2022-12-01T23:58:50.477Z,5.59
